Terminal Aerodrome Forecast
Issued by NWS

Home | Current Version | Previous Version | Text Only | Print | Product List | Glossary On
Versions: 1 2 3 4 5 6 7 8 9 10 11 12 13 14 15 16
000
FTUS46 KSEW 241503 AAB
TAFCLM
TAF AMD
KCLM 241503Z 2415/2512 VRB05KT P6SM VCFG SCT001 BKN200
      TEMPO 2415/2418 1/2SM FG VV001
     FM241800 30006KT P6SM SCT120 BKN150
     FM250000 28007KT P6SM SCT050 BKN100
     FM250600 29004KT P6SM BKN050 OVC100=

USA.gov is the U.S. government's official web portal to all federal, state and local government web resources and services.